Time;durP1;ratioP1;P1;durP2;ratioP2;P2;SDS_P1;SDS_P2;PMS_P1;PMS_P2;Temp;Humidity;BMP_temperature;BMP_pressure;BME280_temperature;BME280_humidity;BME280_pressure;Samples;Min_cycle;Max_cycle;Signal;HPM_P1;HPM_P2
2023/12/14 00:00:27;;;;;;;0.40;0.40;;;7.80;99.90;;;;;;4994680;28;20592;-79
2023/12/14 00:02:54;;;;;;;0.40;0.35;;;7.80;99.90;;;;;;5001980;28;20225;-80
2023/12/14 00:05:22;;;;;;;0.40;0.40;;;7.70;99.90;;;;;;4999883;28;20189;-80
2023/12/14 00:07:49;;;;;;;0.40;0.30;;;7.70;99.90;;;;;;5013105;28;20200;-79
2023/12/14 00:10:17;;;;;;;0.40;0.40;;;7.70;99.90;;;;;;5014227;28;20192;-79
2023/12/14 00:12:44;;;;;;;0.60;0.60;;;7.60;99.90;;;;;;5005869;28;20225;-82
2023/12/14 00:15:11;;;;;;;0.40;0.40;;;7.60;99.90;;;;;;5009458;28;20221;-80
2023/12/14 00:17:38;;;;;;;0.40;0.40;;;7.50;99.90;;;;;;5055690;23;20231;-81
2023/12/14 00:20:06;;;;;;;0.40;0.40;;;7.50;99.90;;;;;;5026141;28;20200;-81
2023/12/14 00:22:34;;;;;;;0.40;0.30;;;7.50;99.90;;;;;;5024281;28;20258;-80
2023/12/14 00:25:00;;;;;;;0.40;0.40;;;7.50;99.90;;;;;;5025997;28;20192;-80
2023/12/14 00:27:27;;;;;;;0.40;0.40;;;7.50;99.90;;;;;;5025250;28;20220;-81
2023/12/14 00:29:54;;;;;;;0.40;0.40;;;7.50;99.90;;;;;;5027875;28;20206;-80
2023/12/14 00:32:21;;;;;;;0.40;0.38;;;7.50;99.90;;;;;;5024691;28;20284;-80
2023/12/14 00:34:48;;;;;;;0.40;0.40;;;7.50;99.90;;;;;;5021649;28;20216;-80
2023/12/14 00:37:15;;;;;;;0.40;0.40;;;7.50;99.90;;;;;;5021919;28;20220;-81
2023/12/14 00:39:43;;;;;;;0.40;0.40;;;7.50;99.90;;;;;;5021977;28;20208;-80
2023/12/14 00:42:10;;;;;;;0.43;0.40;;;7.50;99.90;;;;;;5014325;28;20203;-80
2023/12/14 00:44:37;;;;;;;0.45;0.45;;;7.50;99.90;;;;;;5020597;28;20199;-81
2023/12/14 00:47:04;;;;;;;0.40;0.30;;;7.50;99.90;;;;;;5021627;28;20224;-81
2023/12/14 00:49:31;;;;;;;0.40;0.40;;;7.50;99.90;;;;;;5027906;28;20199;-80
2023/12/14 00:51:58;;;;;;;0.40;0.40;;;7.50;99.90;;;;;;5022740;28;20726;-79
2023/12/14 00:54:25;;;;;;;0.70;0.70;;;7.50;99.90;;;;;;5012748;28;20220;-79
2023/12/14 00:56:53;;;;;;;0.52;0.52;;;7.40;99.90;;;;;;5020878;28;20224;-80
2023/12/14 00:59:20;;;;;;;2.78;0.80;;;7.40;99.90;;;;;;5021598;28;20204;-80
2023/12/14 01:01:46;;;;;;;0.40;0.40;;;7.40;99.90;;;;;;5012846;28;20200;-81
2023/12/14 01:04:13;;;;;;;0.40;0.40;;;7.30;99.90;;;;;;5024199;28;20196;-79
2023/12/14 01:06:40;;;;;;;0.40;0.40;;;7.30;99.90;;;;;;5024503;28;20227;-80
2023/12/14 01:09:08;;;;;;;0.40;0.40;;;7.30;99.90;;;;;;5021426;28;20196;-81
2023/12/14 01:11:34;;;;;;;0.40;0.40;;;7.20;99.90;;;;;;5021126;28;20572;-80
2023/12/14 01:14:02;;;;;;;0.40;0.40;;;7.20;99.90;;;;;;5022909;28;20299;-80
2023/12/14 01:16:29;;;;;;;1.55;0.70;;;7.20;99.90;;;;;;5026100;28;20598;-80
2023/12/14 01:18:56;;;;;;;0.40;0.40;;;7.20;99.90;;;;;;5021738;28;20681;-80
2023/12/14 01:21:23;;;;;;;1.13;1.13;;;7.20;99.90;;;;;;5024043;28;20202;-80
2023/12/14 01:23:50;;;;;;;0.40;0.30;;;7.20;99.90;;;;;;5023326;28;20222;-80
2023/12/14 01:26:18;;;;;;;0.93;0.93;;;7.20;99.90;;;;;;5012339;28;20192;-79
2023/12/14 01:28:45;;;;;;;0.50;0.50;;;7.20;99.90;;;;;;5020357;28;20720;-80
2023/12/14 01:31:13;;;;;;;0.40;0.40;;;7.10;99.90;;;;;;5020889;28;20218;-80
2023/12/14 01:33:39;;;;;;;0.40;0.30;;;7.10;99.90;;;;;;5027992;28;20191;-81
2023/12/14 01:36:07;;;;;;;0.40;0.40;;;7.00;99.90;;;;;;5023410;28;20623;-80
2023/12/14 01:38:33;;;;;;;0.50;0.40;;;7.00;99.90;;;;;;5026146;28;20207;-80
2023/12/14 01:41:00;;;;;;;0.43;0.40;;;7.00;99.90;;;;;;5022057;28;20200;-80
2023/12/14 01:43:27;;;;;;;0.40;0.40;;;7.00;99.90;;;;;;5026843;28;20201;-80
2023/12/14 01:45:54;;;;;;;0.40;0.40;;;7.00;99.90;;;;;;5020812;28;20196;-80
2023/12/14 01:48:22;;;;;;;0.55;0.55;;;7.00;99.90;;;;;;5027960;28;20724;-79
2023/12/14 01:50:49;;;;;;;0.50;0.40;;;7.00;99.90;;;;;;5020436;28;20246;-80
2023/12/14 01:53:15;;;;;;;0.95;0.95;;;7.00;99.90;;;;;;5020698;28;20193;-80
2023/12/14 01:55:42;;;;;;;0.93;0.88;;;7.00;99.90;;;;;;5020396;28;20583;-80
2023/12/14 01:58:09;;;;;;;1.67;1.40;;;7.00;99.90;;;;;;5020353;28;20750;-80
2023/12/14 02:00:40;;;;;;;0.50;0.40;;;6.90;99.90;;;;;;5026659;28;20662;-80
2023/12/14 02:03:07;;;;;;;0.40;0.40;;;6.90;99.90;;;;;;5013168;28;20204;-79
2023/12/14 02:05:35;;;;;;;0.50;0.40;;;6.90;99.90;;;;;;5020313;28;20203;-81
2023/12/14 02:08:02;;;;;;;0.60;0.60;;;6.90;99.90;;;;;;5021719;28;20230;-79
2023/12/14 02:10:29;;;;;;;0.40;0.40;;;6.90;99.90;;;;;;5023829;28;20207;-80
2023/12/14 02:12:55;;;;;;;4.00;0.68;;;6.90;99.90;;;;;;5022590;28;20204;-80
2023/12/14 02:15:22;;;;;;;0.50;0.40;;;6.90;99.90;;;;;;5019990;28;20220;-82
2023/12/14 02:17:49;;;;;;;0.50;0.40;;;6.90;99.90;;;;;;5019841;28;20228;-79
2023/12/14 02:20:16;;;;;;;0.50;0.43;;;6.80;99.90;;;;;;5023285;28;20206;-81
2023/12/14 02:22:53;;;;;;;0.50;0.50;;;6.80;99.90;;;;;;5023522;28;20202;-78
2023/12/14 02:25:21;;;;;;;2.45;2.35;;;6.70;99.90;;;;;;5012448;28;20193;-80
2023/12/14 02:27:49;;;;;;;4.00;2.90;;;6.70;99.90;;;;;;5019848;28;20572;-80
2023/12/14 02:30:16;;;;;;;1.05;0.95;;;6.70;99.90;;;;;;5023101;28;20566;-81
2023/12/14 02:32:43;;;;;;;2.45;2.35;;;6.70;99.90;;;;;;5026920;28;20204;-81
2023/12/14 02:35:09;;;;;;;0.50;0.40;;;6.80;99.90;;;;;;5024340;28;20227;-80
2023/12/14 02:37:40;;;;;;;0.43;0.40;;;6.70;99.90;;;;;;5023860;28;20216;-80
2023/12/14 02:40:09;;;;;;;0.50;0.40;;;6.70;99.90;;;;;;5025168;28;20246;-79
2023/12/14 02:42:36;;;;;;;0.50;0.40;;;6.70;99.90;;;;;;5026711;28;20204;-80
2023/12/14 02:45:03;;;;;;;0.47;0.40;;;6.60;99.90;;;;;;5024786;28;20202;-81
2023/12/14 02:47:30;;;;;;;0.40;0.40;;;6.60;99.90;;;;;;5015280;28;20216;-82
2023/12/14 02:49:57;;;;;;;0.50;0.50;;;6.60;99.90;;;;;;5023974;28;20206;-80
2023/12/14 02:52:24;;;;;;;1.15;0.95;;;6.60;99.90;;;;;;5019215;28;20195;-81
2023/12/14 02:54:51;;;;;;;2.75;2.55;;;6.60;99.90;;;;;;5026719;28;20221;-81
2023/12/14 02:57:19;;;;;;;4.30;1.45;;;6.50;99.90;;;;;;5023108;28;20223;-81
2023/12/14 02:59:46;;;;;;;1.45;1.35;;;6.50;99.90;;;;;;5023197;28;20271;-80
2023/12/14 03:02:13;;;;;;;0.50;0.50;;;6.50;99.90;;;;;;5025397;28;20210;-81
2023/12/14 03:04:40;;;;;;;0.50;0.40;;;6.40;99.90;;;;;;5020458;28;20202;-81
2023/12/14 03:07:06;;;;;;;0.40;0.40;;;6.40;99.90;;;;;;5022768;28;20224;-81
2023/12/14 03:09:34;;;;;;;2.15;2.03;;;6.30;99.90;;;;;;5023156;28;20211;-80
2023/12/14 03:12:01;;;;;;;0.50;0.50;;;6.40;99.90;;;;;;5023408;28;20200;-81
2023/12/14 03:14:33;;;;;;;0.77;0.77;;;6.30;99.90;;;;;;5026203;28;20291;-81
2023/12/14 03:17:00;;;;;;;0.40;0.40;;;6.30;99.90;;;;;;5025053;28;20219;-80
2023/12/14 03:19:27;;;;;;;0.40;0.40;;;6.30;99.90;;;;;;5026591;28;20753;-79
2023/12/14 03:21:54;;;;;;;4.30;3.95;;;6.30;99.90;;;;;;5026161;28;20295;-80
2023/12/14 03:24:20;;;;;;;1.30;1.20;;;6.30;99.90;;;;;;5025478;28;20562;-80
2023/12/14 03:26:47;;;;;;;1.77;1.67;;;6.30;99.90;;;;;;5026060;28;20765;-81
2023/12/14 03:29:14;;;;;;;0.45;0.40;;;6.30;99.90;;;;;;5017606;28;20201;-80
2023/12/14 03:31:42;;;;;;;0.40;0.40;;;6.30;99.90;;;;;;5026415;28;20662;-80
2023/12/14 03:34:09;;;;;;;0.40;0.40;;;6.30;99.90;;;;;;5025911;28;20200;-78
2023/12/14 03:36:36;;;;;;;1.60;1.50;;;6.30;99.90;;;;;;5025610;28;20224;-79
2023/12/14 03:39:02;;;;;;;0.45;0.43;;;6.30;99.90;;;;;;5025137;28;20635;-80
2023/12/14 03:41:29;;;;;;;0.50;0.40;;;6.30;99.90;;;;;;5026814;28;20204;-80
2023/12/14 03:43:56;;;;;;;5.10;1.95;;;6.30;99.90;;;;;;5017928;28;20208;-81
2023/12/14 03:46:23;;;;;;;1.02;0.77;;;6.30;99.90;;;;;;5040500;28;20208;-80
2023/12/14 03:48:51;;;;;;;9.15;2.45;;;6.30;99.90;;;;;;5032442;28;20698;-80
2023/12/14 03:51:19;;;;;;;5.95;1.15;;;6.20;99.90;;;;;;5039732;28;20210;-81
2023/12/14 03:53:46;;;;;;;1.08;1.08;;;6.20;99.90;;;;;;5034966;28;20222;-80
2023/12/14 03:56:13;;;;;;;0.40;0.40;;;6.20;99.90;;;;;;5050186;28;20702;-82
2023/12/14 03:58:40;;;;;;;0.40;0.40;;;6.20;99.90;;;;;;5048210;28;20191;-80
2023/12/14 04:01:07;;;;;;;1.00;1.00;;;6.20;99.90;;;;;;5037695;28;20239;-79
2023/12/14 04:03:33;;;;;;;0.50;0.40;;;6.20;99.90;;;;;;5041626;28;20224;-81
2023/12/14 04:06:02;;;;;;;0.47;0.47;;;6.20;99.90;;;;;;5051137;28;20183;-80
2023/12/14 04:08:28;;;;;;;0.40;0.40;;;6.20;99.90;;;;;;5024142;28;20313;-82
2023/12/14 04:10:55;;;;;;;0.57;0.57;;;6.10;99.90;;;;;;5025250;28;20208;-83
2023/12/14 04:13:22;;;;;;;0.43;0.40;;;6.20;99.90;;;;;;5027472;28;20207;-82
2023/12/14 04:15:49;;;;;;;1.08;1.08;;;6.10;99.90;;;;;;5027980;28;20219;-82
2023/12/14 04:18:15;;;;;;;0.50;0.40;;;6.10;99.90;;;;;;5025354;28;20231;-82
2023/12/14 04:20:42;;;;;;;0.50;0.40;;;6.10;99.90;;;;;;5021996;28;20206;-81
2023/12/14 04:23:10;;;;;;;0.50;0.40;;;6.10;99.90;;;;;;5020059;28;20205;-81
2023/12/14 04:25:37;;;;;;;0.50;0.40;;;6.10;99.90;;;;;;5022808;28;20197;-82
2023/12/14 04:28:04;;;;;;;0.75;0.75;;;6.10;99.90;;;;;;5024524;28;20224;-80
2023/12/14 04:30:31;;;;;;;0.60;0.40;;;6.10;99.90;;;;;;5027810;28;20204;-80
2023/12/14 04:32:57;;;;;;;0.77;0.77;;;6.10;99.90;;;;;;5020500;28;20196;-82
2023/12/14 04:35:24;;;;;;;0.50;0.50;;;6.10;99.90;;;;;;5026398;28;20223;-82
2023/12/14 04:37:51;;;;;;;0.50;0.40;;;6.10;99.90;;;;;;5027227;28;20230;-82
2023/12/14 04:40:19;;;;;;;8.88;4.90;;;6.10;99.90;;;;;;5017365;28;20201;-82
2023/12/14 04:42:46;;;;;;;0.50;0.40;;;6.10;99.90;;;;;;5024059;28;20361;-82
2023/12/14 04:45:13;;;;;;;0.50;0.40;;;6.10;99.90;;;;;;5016356;28;20197;-80
2023/12/14 04:47:40;;;;;;;0.93;0.93;;;6.10;99.90;;;;;;5027268;28;20219;-79
2023/12/14 04:50:07;;;;;;;0.40;0.38;;;6.10;99.90;;;;;;5026168;28;20199;-79
2023/12/14 04:52:34;;;;;;;0.40;0.40;;;6.10;99.90;;;;;;5026440;28;20199;-79
2023/12/14 04:55:01;;;;;;;0.45;0.40;;;6.10;99.90;;;;;;5024834;28;20203;-79
2023/12/14 04:57:29;;;;;;;0.50;0.40;;;6.10;99.90;;;;;;5022352;28;20243;-81
2023/12/14 04:59:56;;;;;;;2.13;1.05;;;6.10;99.90;;;;;;5022038;28;20204;-80
2023/12/14 05:02:23;;;;;;;1.30;1.27;;;6.10;99.90;;;;;;5023767;28;20200;-79
2023/12/14 05:04:50;;;;;;;0.40;0.40;;;6.10;99.90;;;;;;5025045;28;20246;-80
2023/12/14 05:07:16;;;;;;;0.50;0.40;;;6.10;99.90;;;;;;5022806;28;20212;-80
2023/12/14 05:09:43;;;;;;;0.50;0.40;;;6.10;99.90;;;;;;5021066;28;20283;-79
2023/12/14 05:12:10;;;;;;;1.45;1.35;;;6.10;99.90;;;;;;5020912;28;20196;-79
2023/12/14 05:14:38;;;;;;;0.40;0.40;;;6.10;99.90;;;;;;5020417;28;20207;-79
2023/12/14 05:17:05;;;;;;;0.47;0.40;;;6.10;99.90;;;;;;5020637;28;20212;-78
2023/12/14 05:19:33;;;;;;;0.40;0.40;;;6.10;99.90;;;;;;5023862;28;20278;-79
2023/12/14 05:22:00;;;;;;;0.50;0.40;;;6.00;99.90;;;;;;5024178;28;20250;-78
2023/12/14 05:24:27;;;;;;;0.43;0.40;;;6.00;99.90;;;;;;5021226;28;20586;-78
2023/12/14 05:26:54;;;;;;;0.50;0.40;;;5.90;99.90;;;;;;5027174;28;20211;-79
2023/12/14 05:29:23;;;;;;;0.60;0.60;;;5.90;99.90;;;;;;5022747;28;20202;-79
2023/12/14 05:31:51;;;;;;;0.50;0.40;;;6.00;99.90;;;;;;5020865;28;20250;-81
2023/12/14 05:34:18;;;;;;;0.98;0.98;;;6.00;99.90;;;;;;5019919;28;20279;-81
2023/12/14 05:36:44;;;;;;;0.50;0.40;;;5.90;99.90;;;;;;5026597;28;20226;-80
2023/12/14 05:39:11;;;;;;;0.50;0.40;;;5.90;99.90;;;;;;5023391;28;20193;-79
2023/12/14 05:41:41;;;;;;;0.50;0.40;;;6.00;99.90;;;;;;5023712;28;20192;-81
2023/12/14 05:44:08;;;;;;;0.52;0.50;;;5.90;99.90;;;;;;5015569;28;20200;-80
2023/12/14 05:46:35;;;;;;;0.47;0.40;;;5.90;99.90;;;;;;5023062;28;20298;-81
2023/12/14 05:49:03;;;;;;;3.80;2.67;;;5.90;99.90;;;;;;5023607;28;20192;-79
2023/12/14 05:51:31;;;;;;;0.50;0.40;;;5.90;99.90;;;;;;5021188;28;20290;-79
2023/12/14 05:53:57;;;;;;;0.50;0.40;;;6.00;99.90;;;;;;5020308;28;20192;-79
2023/12/14 05:56:25;;;;;;;0.50;0.40;;;6.00;99.90;;;;;;5019932;28;20228;-79
2023/12/14 05:58:52;;;;;;;0.40;0.40;;;6.00;99.90;;;;;;5018133;28;20192;-80
2023/12/14 06:01:19;;;;;;;0.50;0.40;;;6.00;99.90;;;;;;5022650;28;20200;-80
2023/12/14 06:03:46;;;;;;;1.02;1.02;;;6.00;99.90;;;;;;5020056;28;20207;-81
2023/12/14 06:06:14;;;;;;;1.58;0.65;;;6.00;99.90;;;;;;5021620;28;20202;-81
2023/12/14 06:08:41;;;;;;;0.50;0.40;;;6.00;99.90;;;;;;5016614;28;20198;-80
2023/12/14 06:11:08;;;;;;;0.45;0.40;;;6.00;99.90;;;;;;5024584;28;20568;-78
2023/12/14 06:13:35;;;;;;;0.90;0.77;;;6.00;99.90;;;;;;5026829;28;20192;-80
2023/12/14 06:16:02;;;;;;;1.23;0.63;;;6.00;99.90;;;;;;5035942;28;20685;-78
2023/12/14 06:18:29;;;;;;;1.42;1.42;;;6.00;99.90;;;;;;5025664;28;20323;-81
2023/12/14 06:20:56;;;;;;;0.50;0.40;;;5.90;99.90;;;;;;5021515;28;20670;-82
2023/12/14 06:23:25;;;;;;;0.70;0.70;;;5.90;99.90;;;;;;5026596;28;20566;-81
2023/12/14 06:25:52;;;;;;;0.50;0.40;;;5.90;99.90;;;;;;5023893;28;20202;-81
2023/12/14 06:28:18;;;;;;;0.93;0.93;;;5.90;99.90;;;;;;5024444;28;20212;-82
2023/12/14 06:30:45;;;;;;;0.50;0.40;;;5.90;99.90;;;;;;5027840;28;20202;-81
2023/12/14 06:33:12;;;;;;;0.50;0.40;;;6.00;99.90;;;;;;5028162;28;20196;-80
2023/12/14 06:35:39;;;;;;;0.63;0.63;;;5.90;99.90;;;;;;5028566;28;20305;-81
2023/12/14 06:38:06;;;;;;;1.02;1.02;;;5.90;99.90;;;;;;5027896;28;20587;-82
2023/12/14 06:40:34;;;;;;;0.50;0.40;;;5.90;99.90;;;;;;5027351;28;20203;-81
2023/12/14 06:43:00;;;;;;;1.25;1.25;;;5.90;99.90;;;;;;5022852;28;20623;-82
2023/12/14 06:45:27;;;;;;;1.30;0.73;;;5.90;99.90;;;;;;5032839;28;20209;-83
2023/12/14 06:47:54;;;;;;;0.50;0.40;;;5.90;99.90;;;;;;5021856;28;20215;-82
2023/12/14 06:50:21;;;;;;;0.47;0.40;;;5.80;99.90;;;;;;5025897;28;20196;-80
2023/12/14 06:52:48;;;;;;;0.50;0.40;;;5.80;99.90;;;;;;5024393;28;20199;-82
2023/12/14 06:55:15;;;;;;;0.50;0.40;;;5.80;99.90;;;;;;5022956;28;20197;-82
2023/12/14 06:57:46;;;;;;;0.50;0.40;;;5.80;99.90;;;;;;5026433;28;20212;-82
2023/12/14 07:00:15;;;;;;;0.93;0.93;;;5.80;99.90;;;;;;5026642;28;20204;-82
2023/12/14 07:02:41;;;;;;;2.78;1.02;;;5.80;99.90;;;;;;5023065;28;20211;-80
2023/12/14 07:05:09;;;;;;;1.85;1.75;;;5.70;99.90;;;;;;5022897;28;20582;-82
2023/12/14 07:07:35;;;;;;;0.50;0.40;;;5.70;99.90;;;;;;5025805;28;20588;-80
2023/12/14 07:10:02;;;;;;;2.45;2.35;;;5.70;99.90;;;;;;5026170;28;20282;-80
2023/12/14 07:12:29;;;;;;;0.88;0.88;;;5.70;99.90;;;;;;5024406;28;20290;-80
2023/12/14 07:14:57;;;;;;;1.58;1.48;;;5.70;99.90;;;;;;5022370;28;20194;-82
2023/12/14 07:17:24;;;;;;;0.98;0.85;;;5.70;99.90;;;;;;5022160;28;20217;-79
2023/12/14 07:19:52;;;;;;;1.67;1.58;;;5.70;99.90;;;;;;5025787;28;20196;-80
2023/12/14 07:22:19;;;;;;;1.08;1.08;;;5.60;99.90;;;;;;5025974;28;20290;-80
2023/12/14 07:24:45;;;;;;;1.67;1.58;;;5.60;99.90;;;;;;5014611;28;20196;-82
2023/12/14 07:27:12;;;;;;;0.45;0.40;;;5.60;99.90;;;;;;5022217;28;20212;-81
2023/12/14 07:29:39;;;;;;;1.98;1.95;;;5.60;99.90;;;;;;5024362;28;20200;-79
2023/12/14 07:32:08;;;;;;;0.50;0.40;;;5.60;99.90;;;;;;5027965;28;20206;-82
2023/12/14 07:34:35;;;;;;;1.20;1.10;;;5.60;99.90;;;;;;5030158;28;20578;-81
2023/12/14 07:37:01;;;;;;;0.50;0.40;;;5.60;99.90;;;;;;5027816;28;20686;-82
2023/12/14 07:39:28;;;;;;;0.50;0.40;;;5.60;99.90;;;;;;5024662;28;20200;-83
2023/12/14 07:41:55;;;;;;;2.40;2.22;;;5.60;99.90;;;;;;5022352;28;20276;-82
2023/12/14 07:44:22;;;;;;;0.50;0.40;;;5.60;99.90;;;;;;5022206;28;20203;-82
2023/12/14 07:46:49;;;;;;;1.90;1.80;;;5.60;99.90;;;;;;5022322;28;20220;-82
2023/12/14 07:49:20;;;;;;;0.50;0.40;;;5.60;99.90;;;;;;5022406;28;20287;-82
2023/12/14 07:51:47;;;;;;;0.63;0.63;;;5.60;99.90;;;;;;5025168;28;20206;-83
2023/12/14 07:54:13;;;;;;;0.50;0.40;;;5.60;99.90;;;;;;5025270;28;20196;-81
2023/12/14 07:56:40;;;;;;;0.50;0.40;;;5.60;99.90;;;;;;5023272;28;20566;-82
2023/12/14 07:59:07;;;;;;;1.48;1.38;;;5.60;99.90;;;;;;5028314;28;20364;-78
2023/12/14 08:01:34;;;;;;;1.50;1.40;;;5.60;99.90;;;;;;5024162;28;20199;-82
2023/12/14 08:04:02;;;;;;;0.50;0.40;;;5.60;99.90;;;;;;5021978;28;20311;-81
2023/12/14 08:06:30;;;;;;;0.40;0.40;;;5.60;99.90;;;;;;5021250;28;20227;-82
2023/12/14 08:08:58;;;;;;;2.13;1.95;;;5.60;99.90;;;;;;5021705;28;20587;-82
2023/12/14 08:11:25;;;;;;;1.52;1.52;;;5.70;99.90;;;;;;5026860;28;20212;-82
2023/12/14 08:13:52;;;;;;;2.35;2.25;;;5.70;99.90;;;;;;5038960;28;20264;-82
2023/12/14 08:16:19;;;;;;;0.50;0.40;;;5.70;99.90;;;;;;5028567;28;20223;-82
2023/12/14 08:18:48;;;;;;;1.02;1.02;;;5.70;99.90;;;;;;5022014;28;20675;-82
2023/12/14 08:21:15;;;;;;;0.50;0.40;;;5.70;99.90;;;;;;5022460;28;20295;-82
2023/12/14 08:23:43;;;;;;;0.50;0.40;;;5.70;99.90;;;;;;5024347;28;20207;-82
2023/12/14 08:26:12;;;;;;;0.50;0.40;;;5.70;99.90;;;;;;5025414;28;20202;-81
2023/12/14 08:28:39;;;;;;;3.80;2.10;;;5.70;99.90;;;;;;5016112;28;20201;-81
2023/12/14 08:31:08;;;;;;;0.45;0.40;;;5.70;99.90;;;;;;5028823;28;20207;-83
2023/12/14 08:33:34;;;;;;;0.50;0.40;;;5.70;99.90;;;;;;5021977;28;20205;-82
2023/12/14 08:36:01;;;;;;;0.50;0.40;;;5.70;99.90;;;;;;5029717;28;20200;-84
2023/12/14 08:38:28;;;;;;;1.30;1.30;;;5.70;99.90;;;;;;5043991;28;20240;-85
2023/12/14 08:40:56;;;;;;;6.53;2.92;;;5.70;99.90;;;;;;5048052;28;20199;-84
2023/12/14 08:43:23;;;;;;;0.50;0.40;;;5.80;99.90;;;;;;5034314;28;20624;-80
2023/12/14 08:45:50;;;;;;;0.40;0.40;;;5.80;99.90;;;;;;5018764;28;20192;-81
2023/12/14 08:48:17;;;;;;;0.50;0.40;;;5.80;99.90;;;;;;5026122;28;20219;-82
2023/12/14 08:50:43;;;;;;;0.50;0.50;;;5.70;99.90;;;;;;5023239;28;20290;-84
2023/12/14 08:53:11;;;;;;;1.02;1.02;;;5.70;99.90;;;;;;5028218;28;20743;-83
2023/12/14 08:55:38;;;;;;;0.50;0.40;;;5.80;99.90;;;;;;5027664;28;20243;-83
2023/12/14 08:58:06;;;;;;;0.60;0.60;;;5.70;99.90;;;;;;5030107;28;20222;-85
2023/12/14 09:00:32;;;;;;;0.40;0.40;;;5.70;99.90;;;;;;5028612;28;20200;-82
2023/12/14 09:02:59;;;;;;;0.60;0.40;;;5.70;99.90;;;;;;5025834;28;20205;-83
2023/12/14 09:05:26;;;;;;;0.50;0.40;;;5.70;99.90;;;;;;5032780;28;20270;-84
2023/12/14 09:07:55;;;;;;;2.90;1.40;;;5.70;99.90;;;;;;5028027;28;20246;-82
2023/12/14 09:10:22;;;;;;;3.60;3.35;;;5.70;99.90;;;;;;5025947;28;20666;-80
2023/12/14 09:12:49;;;;;;;0.50;0.40;;;5.70;99.90;;;;;;5023568;28;20286;-81
2023/12/14 09:15:18;;;;;;;0.50;0.40;;;5.70;99.90;;;;;;5028443;28;20204;-79
2023/12/14 09:17:45;;;;;;;2.95;2.45;;;5.70;99.90;;;;;;5017495;28;20255;-83
2023/12/14 09:20:12;;;;;;;1.98;1.88;;;5.70;99.90;;;;;;5026785;28;20206;-82
2023/12/14 09:22:39;;;;;;;1.58;1.48;;;5.60;99.90;;;;;;5023893;28;20199;-83
2023/12/14 09:25:09;;;;;;;0.50;0.45;;;5.60;99.90;;;;;;5018623;28;20196;-80
2023/12/14 09:27:35;;;;;;;0.50;0.40;;;5.60;99.90;;;;;;5025352;28;20251;-81
2023/12/14 09:30:02;;;;;;;1.58;0.60;;;5.60;99.90;;;;;;5021810;28;20192;-80
2023/12/14 09:32:31;;;;;;;1.40;1.33;;;5.60;99.90;;;;;;5022135;28;20196;-81
2023/12/14 09:34:57;;;;;;;0.50;0.40;;;5.60;99.90;;;;;;5030283;28;20195;-84
2023/12/14 09:37:24;;;;;;;4.65;2.08;;;5.60;99.90;;;;;;5022760;28;20584;-83
2023/12/14 09:39:51;;;;;;;0.50;0.40;;;5.50;99.90;;;;;;5024369;28;20201;-81
2023/12/14 09:42:20;;;;;;;0.50;0.40;;;5.50;99.90;;;;;;5019928;28;20200;-81
2023/12/14 09:44:48;;;;;;;0.50;0.40;;;5.50;99.90;;;;;;5023388;28;20235;-80
2023/12/14 09:47:15;;;;;;;1.13;1.02;;;5.60;99.90;;;;;;5028292;28;20216;-82
2023/12/14 09:49:44;;;;;;;1.75;1.48;;;5.60;99.90;;;;;;5023116;28;20564;-82
2023/12/14 09:52:11;;;;;;;0.45;0.40;;;5.60;99.90;;;;;;5028827;28;20193;-82
2023/12/14 09:54:38;;;;;;;0.50;0.40;;;5.60;99.90;;;;;;5021093;28;20694;-80
2023/12/14 09:57:05;;;;;;;2.05;1.95;;;5.70;99.90;;;;;;5022332;28;20224;-80
2023/12/14 09:59:31;;;;;;;0.60;0.60;;;5.70;99.90;;;;;;5022053;28;20205;-80
2023/12/14 10:02:10;;;;;;;0.50;0.40;;;5.60;99.90;;;;;;5024852;28;20195;-80
2023/12/14 10:04:38;;;;;;;2.17;2.08;;;5.60;99.90;;;;;;5024417;28;20199;-81
2023/12/14 10:07:07;;;;;;;1.00;1.00;;;5.60;99.90;;;;;;5024986;28;20223;-78
2023/12/14 10:09:34;;;;;;;0.40;0.40;;;5.70;99.90;;;;;;5024843;28;20222;-78
2023/12/14 10:12:06;;;;;;;0.50;0.40;;;5.70;99.90;;;;;;5032525;28;20196;-79
2023/12/14 10:14:33;;;;;;;0.40;0.40;;;5.70;99.90;;;;;;5017088;28;20204;-79
2023/12/14 10:17:13;;;;;;;0.50;0.40;;;5.80;99.90;;;;;;5033573;28;20292;-82
2023/12/14 10:19:43;;;;;;;0.50;0.40;;;5.80;99.90;;;;;;5032397;28;20199;-83
2023/12/14 10:22:11;;;;;;;0.90;0.90;;;5.90;99.90;;;;;;5028395;28;20237;-85
2023/12/14 10:24:38;;;;;;;0.43;0.40;;;5.90;99.90;;;;;;5027005;28;20207;-84
2023/12/14 10:27:07;;;;;;;0.50;0.40;;;5.90;99.90;;;;;;5024094;28;20222;-79
2023/12/14 10:29:34;;;;;;;1.30;1.30;;;6.00;99.90;;;;;;5022619;28;20294;-81
2023/12/14 10:32:01;;;;;;;2.22;2.13;;;6.00;99.90;;;;;;5024689;28;20207;-82
2023/12/14 10:34:28;;;;;;;0.50;0.40;;;5.90;99.90;;;;;;5025106;28;20200;-81
2023/12/14 10:36:54;;;;;;;0.50;0.40;;;5.90;99.90;;;;;;5022654;28;20228;-82
2023/12/14 10:39:23;;;;;;;0.50;0.40;;;5.90;99.90;;;;;;5020572;28;20302;-80
2023/12/14 10:41:52;;;;;;;4.20;1.75;;;6.00;99.90;;;;;;5023358;28;20199;-81
2023/12/14 10:44:20;;;;;;;0.50;0.50;;;6.00;99.90;;;;;;5021246;28;20279;-82
2023/12/14 10:46:51;;;;;;;0.50;0.40;;;6.00;99.90;;;;;;5021901;28;20678;-80
2023/12/14 10:49:18;;;;;;;0.50;0.40;;;5.90;99.90;;;;;;5021522;28;20200;-81
2023/12/14 10:51:46;;;;;;;0.50;0.40;;;6.00;99.90;;;;;;5023901;28;20208;-84
2023/12/14 10:54:14;;;;;;;0.50;0.40;;;6.00;99.90;;;;;;5029198;28;20275;-82
2023/12/14 10:56:43;;;;;;;0.60;0.60;;;6.00;99.90;;;;;;5028924;28;20216;-81
2023/12/14 10:59:09;;;;;;;1.40;1.35;;;6.10;99.90;;;;;;5017750;28;20223;-82
2023/12/14 11:01:39;;;;;;;1.10;1.10;;;6.20;99.90;;;;;;5033390;28;20203;-81
2023/12/14 11:04:12;;;;;;;1.02;1.02;;;6.10;99.90;;;;;;5027769;28;20192;-82
2023/12/14 11:06:42;;;;;;;0.50;0.40;;;6.10;99.90;;;;;;5029855;28;20282;-80
2023/12/14 11:09:14;;;;;;;0.55;0.55;;;6.20;99.90;;;;;;5028776;28;20192;-80
2023/12/14 11:11:57;;;;;;;0.40;0.40;;;6.20;99.90;;;;;;5037725;28;20196;-81
2023/12/14 11:14:24;;;;;;;0.40;0.40;;;6.10;99.90;;;;;;5019973;28;20196;-81
2023/12/14 11:16:54;;;;;;;0.50;0.40;;;6.10;99.90;;;;;;5025389;28;20224;-82
2023/12/14 11:19:31;;;;;;;0.50;0.40;;;6.10;99.90;;;;;;5024958;28;20238;-82
2023/12/14 11:22:24;;;;;;;1.52;1.52;;;6.10;99.90;;;;;;5026870;28;20204;-82
2023/12/14 11:24:56;;;;;;;0.68;0.68;;;6.10;99.90;;;;;;5027502;28;20205;-80
2023/12/14 11:27:33;;;;;;;0.50;0.40;;;6.10;99.90;;;;;;5033669;28;20602;-81
2023/12/14 11:30:01;;;;;;;0.50;0.40;;;6.10;99.90;;;;;;5043385;28;20235;-82
2023/12/14 11:32:28;;;;;;;0.40;0.40;;;6.10;99.90;;;;;;5024395;28;20212;-83
2023/12/14 11:34:56;;;;;;;0.50;0.40;;;6.10;99.90;;;;;;5014385;28;20668;-83
2023/12/14 11:37:23;;;;;;;0.50;0.40;;;6.10;99.90;;;;;;5028261;28;20246;-83
2023/12/14 11:39:53;;;;;;;0.40;0.40;;;6.00;99.90;;;;;;5030150;28;20543;-84
2023/12/14 11:42:20;;;;;;;0.50;0.40;;;6.00;99.90;;;;;;5033508;28;20215;-85
2023/12/14 11:44:48;;;;;;;0.50;0.40;;;6.00;99.90;;;;;;5022340;28;20204;-84
2023/12/14 11:47:15;;;;;;;0.40;0.40;;;6.00;99.90;;;;;;5032808;28;20211;-85
2023/12/14 11:49:42;;;;;;;1.10;1.10;;;6.00;99.90;;;;;;5031749;28;20552;-84
2023/12/14 11:52:09;;;;;;;0.50;0.40;;;6.00;99.90;;;;;;5028505;28;20200;-84
2023/12/14 11:54:35;;;;;;;0.40;0.40;;;6.00;99.90;;;;;;5035204;28;20200;-84
2023/12/14 11:57:03;;;;;;;0.40;0.40;;;6.00;99.90;;;;;;5023356;28;20224;-84
2023/12/14 11:59:32;;;;;;;0.90;0.90;;;6.00;99.90;;;;;;5030870;28;20231;-84
2023/12/14 12:02:02;;;;;;;0.50;0.40;;;6.00;99.90;;;;;;5029361;28;20200;-83
2023/12/14 12:04:30;;;;;;;4.00;1.33;;;6.00;99.90;;;;;;5027630;28;20230;-83
2023/12/14 12:07:04;;;;;;;0.60;0.60;;;5.90;99.90;;;;;;5027244;28;20564;-84
2023/12/14 12:09:42;;;;;;;0.45;0.40;;;5.90;99.90;;;;;;5028132;28;20287;-83
2023/12/14 12:12:11;;;;;;;2.25;1.67;;;5.90;99.90;;;;;;5027424;28;20294;-85
2023/12/14 12:14:38;;;;;;;0.50;0.50;;;5.80;99.90;;;;;;5027008;28;20223;-85
2023/12/14 12:17:07;;;;;;;0.60;0.60;;;5.80;99.90;;;;;;5026409;28;20230;-85
2023/12/14 12:19:34;;;;;;;0.40;0.40;;;5.80;99.90;;;;;;5027901;23;20312;-81
2023/12/14 12:22:01;;;;;;;4.55;1.88;;;5.70;99.90;;;;;;5002799;28;20209;-81
2023/12/14 12:24:28;;;;;;;0.50;0.50;;;5.70;99.90;;;;;;5005254;28;20198;-80
2023/12/14 12:26:55;;;;;;;0.47;0.40;;;5.70;99.90;;;;;;5011043;28;20211;-79
2023/12/14 12:29:22;;;;;;;0.40;0.40;;;5.70;99.90;;;;;;5009615;28;20217;-78
2023/12/14 12:31:49;;;;;;;0.50;0.40;;;5.70;99.90;;;;;;5002359;28;20559;-81
2023/12/14 12:34:17;;;;;;;0.47;0.40;;;5.80;99.90;;;;;;5021725;28;20207;-81
2023/12/14 12:36:44;;;;;;;1.30;0.85;;;5.80;99.90;;;;;;5010348;28;20268;-80
2023/12/14 12:39:11;;;;;;;0.93;0.93;;;5.80;99.90;;;;;;5025536;28;20227;-81
2023/12/14 12:41:38;;;;;;;0.40;0.40;;;5.80;99.90;;;;;;5019846;28;20288;-81
2023/12/14 12:44:07;;;;;;;0.40;0.40;;;5.80;99.90;;;;;;5004637;28;20224;-81
2023/12/14 12:46:34;;;;;;;0.40;0.40;;;5.80;99.90;;;;;;5011170;28;20193;-81
2023/12/14 12:49:02;;;;;;;0.40;0.40;;;5.80;99.90;;;;;;5015593;28;20216;-80
2023/12/14 12:51:30;;;;;;;0.50;0.50;;;5.80;99.90;;;;;;5005306;28;20207;-82
2023/12/14 12:53:58;;;;;;;0.40;0.40;;;5.80;99.90;;;;;;5004069;28;20197;-83
2023/12/14 12:56:26;;;;;;;0.50;0.40;;;5.80;99.90;;;;;;5012836;28;20197;-80
2023/12/14 12:58:53;;;;;;;0.40;0.40;;;5.80;99.90;;;;;;5011578;28;20221;-80